Flight Track Log - Related Links

Times and Time Zones

All times are in EDT time to prevent confusion due to time zone crossing. See the TMC485 flight status page for this flight to view local times or setup timezone preferences in your user account.


Time Position Orientation Groundspeed Altitude Reporting Facility
EDT Latitude Longitude Course Direction KTS MPH feet Rate Location/Type
Wed 12:09:27 PM 38.7333 -90.3333 153° Southeast 175 201 1,600  Level Gateway (St. Louis) TRACON
Wed 12:10:27 PM 38.6833 -90.3000 153° Southeast 232 267 4,000 2,693 Climbing Gateway (St. Louis) TRACON
Wed 12:11:34 PM 38.6450 -90.3608 231° Southwest 230 265 7,300 2,837 Climbing Kansas City Center
Wed 12:12:36 PM 38.6144 -90.4350 242° Southwest 229 264 10,100 2,371 Climbing Kansas City Center
Wed 12:13:38 PM 38.5828 -90.5114 242° Southwest 237 273 12,200 2,081 Climbing Kansas City Center
Wed 12:14:40 PM 38.5339 -90.6139 239° Southwest 279 321 14,400 1,790 Climbing Kansas City Center
Wed 12:15:42 PM 38.4681 -90.6492 203° Southwest 298 343 15,900 1,500 Climbing Kansas City Center
Wed 12:16:44 PM 38.3758 -90.6889 199° South 307 353 17,500 1,403 Climbing Kansas City Center
Wed 12:17:46 PM 38.2864 -90.7272 199° South 326 375 18,800 1,306 Climbing Kansas City Center
Wed 12:18:48 PM 38.1939 -90.7672 199° South 339 390 20,200 1,440 Climbing Kansas City Center
Wed 12:19:51 PM 38.0992 -90.8047 197° South 351 404 21,800 1,728 Climbing Kansas City Center
Wed 12:20:53 PM 37.9844 -90.8542 199° South 362 417 23,800 1,790 Climbing Kansas City Center
Wed 12:21:55 PM 37.8881 -90.8939 198° South 364 419 25,500 1,548 Climbing Kansas City Center
Wed 12:22:57 PM 37.7925 -90.9336 198° South 363 418 27,000 1,403 Climbing Kansas City Center
Wed 12:23:59 PM 37.6969 -90.9744 199° South 363 418 28,400 1,452 Climbing Kansas City Center
Wed 12:25:01 PM 37.5867 -91.0194 198° South 363 418 30,000 1,403 Climbing Kansas City Center
Wed 12:26:03 PM 37.4917 -91.0586 198° South 360 414 31,300 1,065 Climbing Kansas City Center
Wed 12:27:05 PM 37.3967 -91.0981 198° South 358 412 32,200 774 Climbing Kansas City Center
Wed 12:28:07 PM 37.2989 -91.1392 198° South 364 419 32,900 726 Climbing Kansas City Center
Wed 12:29:09 PM 37.2006 -91.1806 199° South 369 425 33,700 774 Climbing Kansas City Center
Wed 12:30:11 PM 37.1025 -91.2206 198° South 369 425 34,500 857 Climbing Kansas City Center
Wed 12:30:33 PM 37.0600 -91.2381 198° South 371 427 34,900 951 Climbing Memphis Center
Wed 12:31:33 PM 36.9597 -91.2761 197° South 371 427 35,800 900 Climbing Memphis Center
Wed 12:32:33 PM 36.8617 -91.3189 199° South 371 427 36,700 850 Climbing Memphis Center
Wed 12:33:33 PM 36.7633 -91.3619 199° South 371 427 37,500 800 Climbing Memphis Center
Wed 12:34:33 PM 36.6650 -91.4019 198° South 371 427 38,300 700 Climbing Memphis Center
Wed 12:35:33 PM 36.5667 -91.4394 197° South 371 427 38,900 550 Climbing Memphis Center
Wed 12:36:33 PM 36.4558 -91.4844 198° South 376 433 39,400 450 Climbing Memphis Center
Wed 12:37:33 PM 36.3575 -91.5244 198° South 376 433 39,800 300 Climbing Memphis Center
Wed 12:38:33 PM 36.2569 -91.5642 198° South 382 440 40,000 100 Climbing Memphis Center
Wed 12:39:33 PM 36.1503 -91.6061 198° South 387 445 40,000  Level Memphis Center
Wed 12:40:33 PM 36.0456 -91.6456 197° South 392 451 40,000  Level Memphis Center
Wed 12:41:33 PM 35.9597 -91.6778 197° South 397 457 40,000  Level Memphis Center
Wed 12:42:33 PM 35.8403 -91.7322 200° South 387 445 40,000  Level Memphis Center
Wed 12:43:33 PM 35.7336 -91.7739 198° South 395 455 40,000  Level Memphis Center
Wed 12:44:33 PM 35.6289 -91.8131 197° South 402 463 40,000  Level Memphis Center
Wed 12:45:33 PM 35.5219 -91.8569 198° South 402 463 40,000  Level Memphis Center
Wed 12:46:33 PM 35.4172 -91.8983 198° South 402 463 40,000  Level Memphis Center
Wed 12:47:33 PM 35.3083 -91.9397 197° South 409 471 40,000  Level Memphis Center
Wed 12:48:33 PM 35.2014 -91.9808 197° South 409 471 40,000  Level Memphis Center
Wed 12:49:33 PM 35.1111 -92.0197 199° South 403 464 40,000  Level Memphis Center
Wed 12:50:33 PM 35.0019 -92.0606 197° South 408 470 40,000  Level Memphis Center
Wed 12:51:33 PM 34.8931 -92.1017 197° South 408 470 40,000  Level Memphis Center
Wed 12:52:33 PM 34.7775 -92.1497 199° South 403 464 40,000  Level Memphis Center
Wed 12:53:33 PM 34.6686 -92.1853 195° South 403 464 40,000  Level Memphis Center
Wed 12:54:33 PM 34.5597 -92.2083 190° South 403 464 40,000  Level Memphis Center
Wed 12:55:33 PM 34.4467 -92.2283 188° South 408 470 40,000  Level Memphis Center
Wed 12:56:33 PM 34.3483 -92.2464 189° South 408 470 40,000  Level Memphis Center
Wed 12:57:33 PM 34.2311 -92.2664 188° South 418 481 40,000  Level Memphis Center
Wed 12:58:33 PM 34.1181 -92.2892 189° South 413 475 40,000  Level Memphis Center
Wed 12:59:33 PM 34.0053 -92.3092 188° South 413 475 40,000  Level Memphis Center
Wed 01:01:30 PM 33.7875 -92.3503 189° South 397 457 40,000  Level Fort Worth Center
Wed 01:02:30 PM 33.6714 -92.3694 188° South 404 465 40,000  Level Fort Worth Center
Wed 01:03:30 PM 33.5553 -92.3886 188° South 416 479 40,000  Level Fort Worth Center
Wed 01:04:30 PM 33.4414 -92.4100 189° South 416 479 40,000  Level Fort Worth Center
Wed 01:05:30 PM 33.3294 -92.4314 189° South 423 487 40,000  Level Fort Worth Center
Wed 01:06:30 PM 33.2133 -92.4503 188° South 423 487 40,000  Level Fort Worth Center
Wed 01:07:30 PM 33.0975 -92.4717 189° South 423 487 40,000  Level Fort Worth Center
Wed 01:08:30 PM 32.9708 -92.4936 188° South 423 487 40,000  Level Fort Worth Center
Wed 01:09:30 PM 32.8569 -92.5172 190° South 423 487 40,000  Level Fort Worth Center
Wed 01:10:30 PM 32.7408 -92.5358 188° South 423 487 40,000  Level Fort Worth Center
Wed 01:12:33 PM 32.5225 -92.5772 189° South 416 479 40,000 -32 Level Houston Center
Wed 01:13:35 PM 32.3833 -92.6019 189° South 423 487 39,900  Descending Houston Center
Wed 01:14:37 PM 32.2664 -92.6225 188° South 425 489 40,000 49 Climbing Houston Center
Wed 01:15:38 PM 32.1514 -92.6439 189° South 422 486 40,000  Level Houston Center
Wed 01:16:40 PM 32.0350 -92.6664 189° South 424 488 40,000  Level Houston Center
Wed 01:17:42 PM 31.9311 -92.7311 208° Southwest 424 488 40,000  Level Houston Center
Wed 01:18:44 PM 31.8531 -92.8311 227° Southwest 418 481 40,000  Level Houston Center
Wed 01:19:46 PM 31.7725 -92.9319 227° Southwest 419 482 40,000  Level Houston Center
Wed 01:20:48 PM 31.6781 -93.0497 227° Southwest 420 483 40,000  Level Houston Center
Wed 01:21:49 PM 31.6000 -93.1497 228° Southwest 418 481 40,000  Level Houston Center
Wed 01:22:51 PM 31.5206 -93.2478 226° Southwest 416 479 40,000  Level Houston Center
Wed 01:23:53 PM 31.4439 -93.3494 229° Southwest 415 478 40,000  Level Houston Center
Wed 01:24:55 PM 31.3656 -93.4464 227° Southwest 414 476 40,000  Level Houston Center
Wed 01:25:57 PM 31.2708 -93.5642 227° Southwest 414 476 40,000 -48 Level Houston Center
Wed 01:26:59 PM 31.1928 -93.6603 227° Southwest 410 472 39,900 -968 Descending Houston Center
Wed 01:28:01 PM 31.1131 -93.7589 227° Southwest 415 478 38,000 -1,887 Descending Houston Center
Wed 01:29:03 PM 31.0322 -93.8606 227° Southwest 422 486 36,000 -968 Descending Houston Center
Wed 01:30:05 PM 30.9567 -93.9539 227° Southwest 414 476 36,000 -48 Level Houston Center
Wed 01:31:07 PM 30.8806 -94.0486 227° Southwest 408 470 35,900 -1,854 Descending Houston Center
Wed 01:32:08 PM 30.7892 -94.1611 227° Southwest 404 465 32,200 -3,220 Descending Houston Center
Wed 01:33:10 PM 30.7111 -94.2564 226° Southwest 408 470 29,300 -2,903 Descending Houston Center
Wed 01:34:12 PM 30.6300 -94.3522 225° Southwest 416 479 26,200 -3,059 Descending Houston Center
Wed 01:34:52 PM 30.5700 -94.4250 226° Southwest 430 495 24,100 -2,903 Descending Houston Center
Wed 01:35:14 PM 30.5475 -94.4525 226° Southwest 429 494 23,200 -3,300 Descending Houston Center
Wed 01:35:52 PM 30.4894 -94.5253 227° Southwest 427 491 20,800 -3,097 Descending Houston Center
Wed 01:36:16 PM 30.4664 -94.5608 233° Southwest 417 480 20,000 -2,852 Descending Houston Center
Wed 01:36:53 PM 30.4217 -94.6286 233° Southwest 387 445 17,900 -2,806 Descending Houston Center
Wed 01:37:18 PM 30.4014 -94.6619 235° Southwest 391 450 17,100 -2,464 Descending Houston Center
Wed 01:37:49 PM 30.3653 -94.7181 233° Southwest 378 435 15,600 -2,613 Descending Houston Center
Wed 01:38:20 PM 30.3389 -94.7606 234° Southwest 381 438 14,400 -2,273 Descending Houston Center
Wed 01:38:55 PM 30.2900 -94.8342 232° Southwest 386 444 13,100 -1,355 Descending Houston Center
Wed 01:39:22 PM 30.2750 -94.8600 236° Southwest 385 443 13,000 -97 Descending Houston Center
Wed 01:39:57 PM 30.2258 -94.9319 232° Southwest 385 443 13,000 -194 Level Houston Center
Wed 01:40:24 PM 30.2108 -94.9583 237° Southwest 384 442 12,800 -1,200 Descending Houston Center
Wed 01:40:52 PM 30.1672 -95.0239 232° Southwest 381 438 11,900 -1,645 Descending Houston Center
Wed 01:41:26 PM 30.1319 -95.0700 229° Southwest 379 436 11,100 -885 Descending Houston Center
Wed 01:41:53 PM 30.0856 -95.0919 202° Southwest 382 440 11,000 -387 Descending Houston Center
Wed 01:42:28 PM 30.0336 -95.1147 201° Southwest 378 435 10,700 -885 Descending Houston Center
Wed 01:42:54 PM 29.9906 -95.1325 200° South 346 398 10,100 -677 Descending Houston Center
Wed 01:43:30 PM 29.9481 -95.1525 202° Southwest 338 389 10,000 -269 Descending Houston Center
Wed 01:44:01 PM 29.8978 -95.1731 200° South 292 336 9,800 -774 Descending Houston Center
Wed 01:44:32 PM 29.8675 -95.1861 201° Southwest 309 356 9,200 -1,377 Descending Houston Center
Wed 01:45:02 PM 29.8169 -95.2092 202° Southwest 305 351 8,400 -1,452 Descending Houston Center
Wed 01:45:34 PM 29.7892 -95.2208 200° South 306 352 7,700 -1,574 Descending Houston Center
Wed 01:46:03 PM 29.7394 -95.2331 192° South 285 328 6,800 -1,645 Descending Houston Center
Wed 01:46:36 PM 29.6967 -95.2336 181° South 286 329 6,000 -689 Descending Houston Center
Wed 01:47:04 PM 29.6578 -95.2358 183° South 273 314 6,100  Climbing Houston Center
Wed 01:47:38 PM 29.6225 -95.2372 182° South 277 319 6,000 -98 Descending Houston Center
Wed 01:48:05 PM 29.5803 -95.2381 181° South 266 306 6,000  Level Houston Center
Wed 01:48:40 PM 29.5550 -95.2489 200° South 258 297 6,000  Level Houston Center
Wed 01:49:01 PM 29.5311 -95.2728 221° Southwest 227 261 6,000  Level Houston Center
Wed 01:49:42 PM 29.5081 -95.2981 224° Southwest 233 268 6,000 -98 Level Houston Center
Wed 01:50:02 PM 29.4900 -95.3283 236° Southwest 216 249 5,900 -1,258 Descending Houston Center
Wed 01:50:44 PM 29.5092 -95.3661 300° West 218 251 4,700 -1,967 Descending Houston Center
Wed 01:51:03 PM 29.5203 -95.3847 304° West 211 243 3,900 -1,742 Descending Houston Center
Wed 01:51:46 PM 29.5536 -95.3783 North 203 234 2,900 -1,612 Descending Houston Center
Wed 01:52:10 PM 29.5708 -95.3617 40° Northeast 184 212 2,100 -1,452 Descending Houston Center
Wed 01:52:48 PM 29.5897 -95.3417 43° Northeast 183 211 1,400 -984 Descending Houston Center
Wed 01:53:11 PM 29.6031 -95.3242 49° Northeast 148 170 1,100 -677 Descending Houston Center
Wed 01:53:50 PM 29.6194 -95.3078 41° Northeast 166 191 700 -750 Descending Houston Center
Wed 01:54:07 PM 29.6278 -95.2972 48° Northeast 132 152 400 -581 Descending Houston Center
Wed 01:54:52 PM 29.6475 -95.2753 44° Northeast 149 171 100 -400 Descending Houston Center

Login

Don't have an account? Register now (free) for customized features, flight alerts, and more!